Time;durP1;ratioP1;P1;durP2;ratioP2;P2;SDS_P1;SDS_P2;PMS_P1;PMS_P2;Temp;Humidity;BMP_temperature;BMP_pressure;BME280_temperature;BME280_humidity;BME280_pressure;Samples;Min_cycle;Max_cycle;Signal;HPM_P1;HPM_P2
2022/10/01 00:01:15;;;;;;;3.03;1.30;;;;;;;21.71;49.35;99995.41;4999429;28;20029;-39
2022/10/01 00:03:42;;;;;;;1.80;1.60;;;;;;;21.73;49.42;99979.94;4998431;28;20726;-41
2022/10/01 00:06:16;;;;;;;3.42;1.45;;;;;;;21.67;49.65;99956.31;4999599;28;20260;-38
2022/10/01 00:08:47;;;;;;;2.50;1.42;;;;;;;21.51;50.26;99954.34;5005114;28;20110;-38
2022/10/01 00:11:18;;;;;;;3.45;1.45;;;;;;;21.38;50.19;99947.59;5006370;28;20425;-38
2022/10/01 00:13:45;;;;;;;3.13;1.80;;;;;;;21.36;50.22;99946.91;5005471;28;20382;-38
2022/10/01 00:16:17;;;;;;;1.73;1.50;;;;;;;21.28;50.39;99938.78;4993147;28;20056;-39
2022/10/01 00:18:44;;;;;;;2.63;1.40;;;;;;;21.25;50.36;99925.63;5005853;28;20156;-38
2022/10/01 00:21:14;;;;;;;2.58;1.40;;;;;;;21.20;50.37;99928.81;5005647;28;20033;-34
2022/10/01 00:23:39;;;;;;;2.28;1.42;;;;;;;21.16;50.07;99927.44;5003892;28;20033;-34
2022/10/01 00:26:08;;;;;;;1.98;1.40;;;;;;;21.16;50.42;99926.59;5006207;28;20089;-34
2022/10/01 00:28:33;;;;;;;1.75;1.25;;;;;;;21.08;50.77;99914.78;5003628;28;20553;-33
2022/10/01 00:30:58;;;;;;;1.08;1.08;;;;;;;21.06;50.22;99916.81;5016085;28;20036;-37
2022/10/01 00:33:25;;;;;;;3.00;1.30;;;;;;;21.02;50.21;99926.16;5004394;28;20043;-38
2022/10/01 00:35:53;;;;;;;2.28;1.40;;;;;;;20.99;50.59;99915.75;5018484;28;20037;-38
2022/10/01 00:38:19;;;;;;;1.55;1.30;;;;;;;20.97;50.91;99901.59;5005760;28;20022;-33
2022/10/01 00:40:44;;;;;;;3.47;1.30;;;;;;;20.97;50.60;99893.50;5003571;28;20032;-33
2022/10/01 00:43:21;;;;;;;3.05;1.55;;;;;;;20.89;50.90;99897.00;5006184;28;20033;-34
2022/10/01 00:45:47;;;;;;;1.30;1.20;;;;;;;20.92;50.42;99893.16;5003931;28;20509;-33
2022/10/01 00:48:13;;;;;;;2.03;1.30;;;;;;;20.90;50.42;99885.25;5004563;28;20032;-33
2022/10/01 00:50:39;;;;;;;2.28;1.38;;;;;;;20.88;51.14;99892.66;5004376;28;20039;-33
2022/10/01 00:53:10;;;;;;;1.23;1.13;;;;;;;20.85;51.32;99874.13;5005190;28;20033;-34
2022/10/01 00:55:46;;;;;;;2.38;1.50;;;;;;;20.84;50.73;99864.34;5008678;28;20042;-37
2022/10/01 00:58:13;;;;;;;1.80;1.38;;;;;;;20.76;50.68;99857.06;5010012;28;21508;-38
2022/10/01 01:00:41;;;;;;;2.08;1.38;;;;;;;20.75;51.15;99863.44;5011000;28;20030;-38
2022/10/01 01:03:08;;;;;;;1.90;1.30;;;;;;;20.75;51.02;99854.56;5009341;28;20080;-37
2022/10/01 01:05:34;;;;;;;1.20;1.10;;;;;;;20.71;50.98;99842.44;5009343;28;20041;-33
2022/10/01 01:08:01;;;;;;;1.45;1.20;;;;;;;20.68;51.54;99854.31;5009114;28;20039;-33
2022/10/01 01:10:53;;;;;;;2.20;1.35;;;;;;;20.67;51.13;99849.94;5010277;28;20033;-38
2022/10/01 01:13:36;;;;;;;1.95;1.35;;;;;;;20.69;50.89;99839.00;5000516;28;20057;-38
2022/10/01 01:16:13;;;;;;;2.00;1.13;;;;;;;20.64;51.11;99852.97;5009309;28;20045;-38
2022/10/01 01:18:51;;;;;;;1.42;1.27;;;;;;;20.59;51.15;99837.28;5009851;28;20150;-38
2022/10/01 01:21:29;;;;;;;1.98;1.20;;;;;;;20.58;51.72;99850.88;5009173;28;20041;-38
2022/10/01 01:24:13;;;;;;;1.60;1.30;;;;;;;20.55;51.65;99849.38;5010000;28;20025;-33
2022/10/01 01:27:15;;;;;;;1.63;1.10;;;;;;;20.56;51.24;99853.75;5009195;28;20043;-38
2022/10/01 01:29:49;;;;;;;2.88;1.23;;;;;;;20.57;51.25;99841.97;5009431;28;20039;-34
2022/10/01 01:32:29;;;;;;;2.03;1.23;;;;;;;20.58;51.73;99845.50;5007790;28;20068;-38
2022/10/01 01:34:59;;;;;;;1.93;1.40;;;;;;;20.57;51.72;99841.97;5009779;28;20030;-38
2022/10/01 01:37:30;;;;;;;1.70;1.27;;;;;;;20.55;51.40;99837.75;5009010;28;20288;-38
2022/10/01 01:39:58;;;;;;;1.67;1.08;;;;;;;20.58;51.56;99837.44;5009376;28;20035;-39
2022/10/01 01:42:30;;;;;;;1.52;1.10;;;;;;;20.50;51.34;99850.81;5005880;28;20038;-38
2022/10/01 01:44:59;;;;;;;1.25;1.08;;;;;;;20.50;51.44;99842.75;5009799;28;20029;-34
2022/10/01 01:47:28;;;;;;;1.40;1.30;;;;;;;20.46;51.90;99837.72;5008478;28;20025;-38
2022/10/01 01:49:54;;;;;;;1.30;1.20;;;;;;;20.48;51.84;99837.53;5007997;28;20033;-39
2022/10/01 01:52:19;;;;;;;1.20;1.10;;;;;;;20.46;51.82;99844.91;5009665;28;20341;-34
2022/10/01 01:54:48;;;;;;;1.50;1.20;;;;;;;20.43;52.03;99832.63;5007626;28;22314;-34
2022/10/01 01:57:16;;;;;;;2.78;1.10;;;;;;;20.44;51.90;99820.03;5008382;28;20638;-38
2022/10/01 01:59:42;;;;;;;1.85;1.17;;;;;;;20.43;51.78;99842.53;5007241;28;20249;-39
2022/10/01 02:02:14;;;;;;;1.58;1.27;;;;;;;20.39;52.38;99836.63;5007684;28;20037;-38
2022/10/01 02:04:44;;;;;;;1.35;1.08;;;;;;;20.39;52.38;99849.25;5007751;28;20448;-38
2022/10/01 02:07:34;;;;;;;1.67;1.33;;;;;;;20.33;52.61;99841.81;5007816;28;20025;-34
2022/10/01 02:10:11;;;;;;;2.78;1.40;;;;;;;20.27;53.05;99840.59;5008235;28;20056;-38
2022/10/01 02:12:46;;;;;;;1.90;1.08;;;;;;;20.32;52.84;99845.47;5008110;28;20048;-39
2022/10/01 02:15:48;;;;;;;2.42;1.42;;;;;;;20.27;52.73;99833.38;5008621;28;20052;-34
2022/10/01 02:18:28;;;;;;;1.17;1.08;;;;;;;20.28;52.62;99835.06;5009256;28;20376;-38
2022/10/01 02:21:04;;;;;;;1.73;1.27;;;;;;;20.28;52.97;99834.19;5007769;28;20041;-38
2022/10/01 02:23:34;;;;;;;1.23;1.10;;;;;;;20.26;53.07;99828.16;5008954;28;20102;-34
2022/10/01 02:26:06;;;;;;;1.37;1.20;;;;;;;20.24;53.24;99831.00;5008732;28;20032;-34
2022/10/01 02:28:36;;;;;;;2.03;1.08;;;;;;;20.26;53.12;99815.53;5008166;28;20365;-34
2022/10/01 02:31:03;;;;;;;1.05;0.82;;;;;;;20.28;53.11;99827.00;5007136;28;20040;-34
2022/10/01 02:33:31;;;;;;;3.08;1.20;;;;;;;20.22;53.38;99822.25;5007660;28;20525;-34
2022/10/01 02:35:58;;;;;;;1.23;1.13;;;;;;;20.23;53.01;99826.63;4993121;28;20040;-38
2022/10/01 02:38:25;;;;;;;2.03;1.13;;;;;;;20.22;53.31;99814.19;5004212;28;20502;-38
2022/10/01 02:40:54;;;;;;;1.52;1.10;;;;;;;20.25;53.30;99821.09;5007008;28;20479;-34
2022/10/01 02:43:31;;;;;;;1.45;0.98;;;;;;;20.25;53.46;99802.25;5007874;28;20029;-38
2022/10/01 02:46:06;;;;;;;1.42;1.08;;;;;;;20.23;53.03;99813.19;5008285;28;20752;-33
2022/10/01 02:48:32;;;;;;;2.05;1.00;;;;;;;20.21;53.69;99811.66;5008261;28;20532;-34
2022/10/01 02:51:10;;;;;;;1.02;0.93;;;;;;;20.16;53.30;99811.28;5007241;28;20150;-34
2022/10/01 02:53:47;;;;;;;0.90;0.90;;;;;;;20.17;53.62;99815.63;5007487;28;20557;-38
2022/10/01 02:57:21;;;;;;;1.17;1.02;;;;;;;20.21;53.19;99815.16;5007164;28;20029;-34
2022/10/01 02:59:07;;;;;;;1.55;1.10;;;;;;;20.14;54.20;99814.09;5005391;28;20045;-34
2022/10/01 03:01:34;;;;;;;1.95;1.20;;;;;;;20.14;53.87;99820.34;5007183;28;20045;-33
2022/10/01 03:04:01;;;;;;;1.48;0.93;;;;;;;20.17;53.52;99823.69;5004900;28;20524;-34
2022/10/01 03:06:26;;;;;;;2.15;1.00;;;;;;;20.12;53.83;99816.13;5007686;28;20449;-38
2022/10/01 03:08:52;;;;;;;1.48;1.20;;;;;;;20.11;54.12;99814.41;5006201;28;20332;-34
2022/10/01 03:11:19;;;;;;;1.80;1.15;;;;;;;20.11;54.58;99814.41;5006954;28;20778;-33
2022/10/01 03:13:45;;;;;;;1.70;1.02;;;;;;;20.12;54.00;99808.88;5005393;28;20042;-33
2022/10/01 03:16:10;;;;;;;1.20;1.10;;;;;;;20.10;54.18;99812.72;5007454;28;20615;-33
2022/10/01 03:18:36;;;;;;;1.00;0.90;;;;;;;20.10;54.25;99824.34;5006974;28;20033;-33
2022/10/01 03:21:01;;;;;;;2.53;1.10;;;;;;;20.09;54.27;99817.28;5006971;28;20079;-33
2022/10/01 03:23:26;;;;;;;1.23;1.00;;;;;;;20.08;54.60;99815.56;5005799;28;20549;-35
2022/10/01 03:25:52;;;;;;;1.23;1.10;;;;;;;20.09;54.30;99811.91;5008227;28;20095;-35
2022/10/01 03:28:17;;;;;;;1.10;1.00;;;;;;;20.09;54.01;99819.09;5005420;28;20029;-37
2022/10/01 03:30:42;;;;;;;2.28;1.02;;;;;;;20.09;54.50;99821.78;5005103;28;20040;-37
2022/10/01 03:33:08;;;;;;;1.10;1.00;;;;;;;20.07;54.50;99829.19;5005904;28;20041;-38
2022/10/01 03:35:33;;;;;;;1.73;0.93;;;;;;;20.07;55.17;99827.31;5006019;28;20052;-37
2022/10/01 03:37:58;;;;;;;1.02;0.95;;;;;;;20.09;55.05;99824.47;5006676;28;20333;-37
2022/10/01 03:40:24;;;;;;;1.52;1.08;;;;;;;20.05;54.86;99842.78;5006072;28;20063;-37
2022/10/01 03:42:50;;;;;;;2.22;1.27;;;;;;;20.03;54.98;99843.94;5037239;28;20040;-37
2022/10/01 03:45:15;;;;;;;1.58;0.90;;;;;;;20.04;55.00;99845.59;5007580;28;20029;-37
2022/10/01 03:47:40;;;;;;;1.15;1.05;;;;;;;20.02;55.83;99852.97;5006857;28;20055;-39
2022/10/01 03:50:06;;;;;;;1.15;1.00;;;;;;;20.04;55.04;99849.16;5005927;28;20033;-37
2022/10/01 03:52:32;;;;;;;1.25;0.95;;;;;;;20.01;55.42;99844.06;5006561;28;20511;-37
2022/10/01 03:54:59;;;;;;;1.48;1.00;;;;;;;20.01;55.74;99848.59;5006069;28;20029;-37
2022/10/01 03:57:24;;;;;;;1.88;1.05;;;;;;;20.00;55.97;99850.47;5006840;28;20048;-37
2022/10/01 03:59:50;;;;;;;2.47;1.17;;;;;;;20.01;55.71;99848.59;5005528;28;20137;-33
2022/10/01 04:02:15;;;;;;;1.95;1.02;;;;;;;20.04;55.35;99843.78;5006312;28;20041;-36
2022/10/01 04:04:40;;;;;;;3.03;1.17;;;;;;;20.03;55.42;99858.19;5005684;28;20044;-37
2022/10/01 04:07:06;;;;;;;2.03;0.90;;;;;;;20.04;55.89;99861.72;5037987;28;20113;-37
2022/10/01 04:09:31;;;;;;;1.40;0.98;;;;;;;20.02;55.67;99875.31;5004764;28;20080;-38
2022/10/01 04:11:56;;;;;;;0.88;0.80;;;;;;;20.02;55.53;99871.78;5004432;28;20644;-34
2022/10/01 04:14:22;;;;;;;1.45;1.05;;;;;;;20.06;55.30;99875.84;5005948;28;20151;-38
2022/10/01 04:16:51;;;;;;;1.30;1.08;;;;;;;20.04;55.68;99872.47;5005861;28;20041;-34
2022/10/01 04:19:17;;;;;;;1.45;0.90;;;;;;;20.05;55.39;99883.09;5006612;28;20048;-38
2022/10/01 04:21:43;;;;;;;2.25;0.90;;;;;;;20.04;55.33;99888.59;5005387;28;20708;-37
2022/10/01 04:24:08;;;;;;;1.98;0.95;;;;;;;20.03;55.97;99895.00;5006316;28;20037;-38
2022/10/01 04:26:33;;;;;;;1.45;1.00;;;;;;;20.04;55.56;99897.50;5005864;28;20025;-38
2022/10/01 04:28:59;;;;;;;1.83;1.02;;;;;;;20.04;55.77;99902.03;5006006;28;20069;-38
2022/10/01 04:31:24;;;;;;;1.00;0.90;;;;;;;20.03;55.72;99892.31;5009715;28;20047;-38
2022/10/01 04:33:54;;;;;;;0.80;0.70;;;;;;;20.04;55.81;99896.66;5010157;28;20049;-38
2022/10/01 04:36:20;;;;;;;1.33;1.00;;;;;;;20.01;56.10;99897.81;5008706;28;20108;-38
2022/10/01 04:38:48;;;;;;;3.35;1.08;;;;;;;20.04;55.85;99907.41;5010756;28;20056;-37
2022/10/01 04:41:14;;;;;;;1.23;0.90;;;;;;;20.04;56.08;99902.88;5040628;28;20033;-37
2022/10/01 04:43:39;;;;;;;2.08;1.17;;;;;;;20.00;55.93;99908.72;5010038;28;20033;-38
2022/10/01 04:46:05;;;;;;;1.15;0.80;;;;;;;20.02;56.09;99917.47;5009865;28;20258;-37
2022/10/01 04:48:30;;;;;;;2.17;1.00;;;;;;;19.99;56.34;99924.00;5008843;28;20076;-33
2022/10/01 04:50:55;;;;;;;1.67;1.10;;;;;;;20.01;55.91;99923.84;5010581;28;20466;-37
2022/10/01 04:53:21;;;;;;;2.15;1.10;;;;;;;20.01;56.22;99930.06;5009481;28;21163;-38
2022/10/01 04:55:46;;;;;;;2.53;1.00;;;;;;;19.96;56.34;99930.53;5009137;28;20504;-38
2022/10/01 04:58:11;;;;;;;1.60;1.00;;;;;;;19.96;56.26;99935.03;5009263;28;20068;-38
2022/10/01 05:00:37;;;;;;;1.65;0.80;;;;;;;19.94;56.57;99932.50;5010334;28;20113;-38
2022/10/01 05:03:02;;;;;;;2.03;1.00;;;;;;;19.98;56.49;99935.75;5042192;28;20028;-37
2022/10/01 05:05:31;;;;;;;2.47;0.90;;;;;;;19.98;55.97;99941.13;5010617;28;20066;-38
2022/10/01 05:07:57;;;;;;;1.48;0.93;;;;;;;20.00;56.23;99952.56;5008485;28;20056;-34
2022/10/01 05:10:23;;;;;;;1.55;0.90;;;;;;;19.96;56.36;99951.16;5009098;28;20283;-38
2022/10/01 05:12:50;;;;;;;1.80;1.00;;;;;;;19.97;56.13;99956.41;5008144;28;20692;-34
2022/10/01 05:15:16;;;;;;;2.58;1.25;;;;;;;19.94;56.18;99962.06;5009159;28;20039;-34
2022/10/01 05:17:42;;;;;;;2.70;1.00;;;;;;;19.96;56.41;99969.97;5009042;28;20033;-38
2022/10/01 05:20:14;;;;;;;2.25;0.98;;;;;;;19.94;56.02;99967.44;5009396;28;20391;-35
2022/10/01 05:22:40;;;;;;;0.93;0.80;;;;;;;19.98;55.68;99978.75;5007276;28;20036;-35
2022/10/01 05:25:06;;;;;;;2.38;1.17;;;;;;;19.98;55.71;99978.75;5008957;28;20513;-35
2022/10/01 05:27:35;;;;;;;1.15;0.80;;;;;;;20.13;55.37;99977.22;5008831;28;20048;-35
2022/10/01 05:30:01;;;;;;;1.90;1.00;;;;;;;20.35;54.46;99990.38;5008468;28;20061;-37
2022/10/01 05:32:26;;;;;;;0.95;0.80;;;;;;;20.48;54.24;99982.75;5008591;28;20556;-37
2022/10/01 05:34:52;;;;;;;1.95;1.10;;;;;;;20.56;54.06;99985.53;5008460;28;20040;-37
2022/10/01 05:37:18;;;;;;;1.60;1.00;;;;;;;20.65;53.12;99991.81;5009000;28;20033;-34
2022/10/01 05:39:43;;;;;;;1.65;1.05;;;;;;;20.70;53.02;99994.91;5007826;28;20033;-38
2022/10/01 05:42:09;;;;;;;1.02;0.90;;;;;;;20.77;53.78;100000.53;5007904;28;20259;-38
2022/10/01 05:44:36;;;;;;;2.20;1.02;;;;;;;20.81;52.99;100001.03;5008952;28;20041;-34
2022/10/01 05:47:05;;;;;;;3.05;1.05;;;;;;;20.90;53.31;99995.56;5008553;28;20037;-38
2022/10/01 05:49:32;;;;;;;2.08;1.20;;;;;;;21.05;52.52;100005.75;5007946;28;21009;-38
2022/10/01 05:51:59;;;;;;;1.90;1.02;;;;;;;21.15;52.39;100000.28;5008110;28;20032;-34
2022/10/01 05:54:26;;;;;;;2.33;1.02;;;;;;;21.26;51.89;100011.63;5008515;28;20692;-33
2022/10/01 05:56:52;;;;;;;2.15;0.98;;;;;;;21.32;52.10;100009.31;5008490;28;20029;-34
2022/10/01 05:59:17;;;;;;;1.83;0.98;;;;;;;21.38;52.40;100011.34;5008959;28;20037;-34
2022/10/01 06:01:43;;;;;;;1.52;1.00;;;;;;;21.46;52.41;100011.44;5006822;28;20038;-39
2022/10/01 06:04:09;;;;;;;2.05;1.20;;;;;;;21.55;52.07;100015.88;5006703;28;20783;-34
2022/10/01 06:06:35;;;;;;;1.80;1.00;;;;;;;21.62;51.77;100005.28;5007119;28;20040;-38
2022/10/01 06:09:00;;;;;;;1.92;1.23;;;;;;;21.68;51.98;100017.28;5006933;28;20045;-35
2022/10/01 06:11:26;;;;;;;1.85;1.10;;;;;;;21.72;52.07;100015.94;5008357;28;20152;-34
2022/10/01 06:13:52;;;;;;;1.35;1.02;;;;;;;21.79;51.85;100025.09;5023104;28;20486;-34
2022/10/01 06:16:17;;;;;;;3.33;1.30;;;;;;;21.84;51.90;100033.53;5006292;28;20060;-35
2022/10/01 06:18:43;;;;;;;2.33;1.10;;;;;;;21.91;51.77;100023.78;5038813;28;20033;-39
2022/10/01 06:21:08;;;;;;;2.80;1.13;;;;;;;21.92;51.52;100032.72;5007985;28;20072;-34
2022/10/01 06:23:35;;;;;;;2.05;1.00;;;;;;;21.97;51.73;100030.38;5006815;28;20359;-34
2022/10/01 06:26:04;;;;;;;1.65;0.98;;;;;;;21.99;51.84;100049.91;5008661;28;20037;-35
2022/10/01 06:28:30;;;;;;;2.30;1.10;;;;;;;21.99;52.00;100051.78;5006076;28;20709;-34
2022/10/01 06:30:55;;;;;;;1.88;1.23;;;;;;;22.01;51.87;100042.50;5009376;28;20507;-38
2022/10/01 06:33:20;;;;;;;2.58;1.00;;;;;;;22.00;52.07;100043.53;5004766;28;20037;-35
2022/10/01 06:35:48;;;;;;;2.75;1.20;;;;;;;21.98;52.03;100048.22;5008805;28;20131;-38
2022/10/01 06:38:15;;;;;;;2.90;1.23;;;;;;;21.95;52.36;100053.13;5007554;28;20033;-39
2022/10/01 06:40:41;;;;;;;2.35;1.20;;;;;;;21.89;52.39;100041.97;5007801;28;20508;-39
2022/10/01 06:43:07;;;;;;;1.48;1.08;;;;;;;21.88;52.23;100052.91;5007691;28;20032;-35
2022/10/01 06:45:37;;;;;;;3.33;1.20;;;;;;;21.87;52.45;100048.53;5007010;28;20033;-34
2022/10/01 06:48:03;;;;;;;1.40;1.10;;;;;;;21.85;52.68;100058.63;5006719;28;20785;-39
2022/10/01 06:50:30;;;;;;;3.33;1.23;;;;;;;21.86;52.37;100063.84;5007456;28;20025;-39
2022/10/01 06:52:56;;;;;;;2.85;1.20;;;;;;;21.82;52.75;100056.25;5005577;28;20055;-35
2022/10/01 06:55:30;;;;;;;1.10;1.00;;;;;;;21.80;53.21;100069.03;5006780;28;20025;-39
2022/10/01 06:57:55;;;;;;;3.38;1.20;;;;;;;21.78;53.00;100063.81;5006770;28;20401;-35
2022/10/01 07:00:21;;;;;;;5.07;1.58;;;;;;;21.76;53.41;100061.28;5007463;28;20034;-35
2022/10/01 07:02:46;;;;;;;3.10;1.40;;;;;;;21.73;53.51;100056.19;5005834;28;20474;-35
2022/10/01 07:05:12;;;;;;;2.65;1.40;;;;;;;21.72;53.57;100065.28;5004011;28;21306;-33
2022/10/01 07:07:37;;;;;;;5.05;1.20;;;;;;;21.66;53.68;100063.22;5001386;28;21361;-34
2022/10/01 07:10:08;;;;;;;3.97;1.40;;;;;;;21.65;53.81;100066.09;5004383;28;20041;-38
2022/10/01 07:12:35;;;;;;;4.35;1.40;;;;;;;21.62;53.65;100063.72;5002717;28;20429;-34
2022/10/01 07:15:00;;;;;;;3.47;1.50;;;;;;;21.59;54.09;100079.19;5005340;28;20194;-37
2022/10/01 07:17:26;;;;;;;2.80;1.17;;;;;;;21.56;54.19;100076.84;5002472;28;20029;-38
2022/10/01 07:19:51;;;;;;;3.60;1.45;;;;;;;21.55;54.41;100079.69;5004960;28;20121;-34
2022/10/01 07:22:18;;;;;;;2.72;1.50;;;;;;;21.53;54.03;100081.66;5003570;28;20132;-39
2022/10/01 07:24:44;;;;;;;3.55;1.30;;;;;;;21.52;54.44;100088.03;5007652;28;20074;-38
2022/10/01 07:27:09;;;;;;;6.32;1.95;;;;;;;21.47;54.26;100088.53;5005325;28;20037;-34
2022/10/01 07:29:34;;;;;;;16.00;4.07;;;;;;;21.45;54.43;100088.66;5008343;28;20033;-34
2022/10/01 07:32:00;;;;;;;21.05;5.40;;;;;;;21.46;54.87;100092.22;5021405;28;20055;-34
2022/10/01 07:34:31;;;;;;;24.88;6.22;;;;;;;21.49;54.48;100101.84;5006097;28;20120;-34
2022/10/01 07:36:57;;;;;;;;;;;;;;;21.54;53.93;100099.50;5007432;28;20383;-34
2022/10/01 07:39:22;;;;;;;24.23;6.17;;;;;;;21.55;54.22;100120.09;5006301;28;20594;-34
2022/10/01 07:41:49;;;;;;;23.23;5.65;;;;;;;21.54;53.93;100116.50;5006498;28;20295;-34
2022/10/01 07:44:14;;;;;;;22.92;5.80;;;;;;;21.49;54.43;100126.91;5006348;28;21024;-39
2022/10/01 07:46:40;;;;;;;18.65;5.47;;;;;;;21.48;54.16;100127.91;5006572;28;20045;-40
2022/10/01 07:49:05;;;;;;;19.52;6.18;;;;;;;21.51;55.00;100124.91;5005960;28;20119;-39
2022/10/01 07:51:31;;;;;;;20.05;5.93;;;;;;;21.50;54.64;100130.47;5008575;28;20087;-39
2022/10/01 07:53:57;;;;;;;18.65;6.18;;;;;;;21.50;54.28;100135.84;5003374;28;20033;-35
2022/10/01 07:56:23;;;;;;;18.17;6.45;;;;;;;21.48;55.02;100140.53;5004780;28;20041;-35
2022/10/01 07:58:50;;;;;;;17.70;6.00;;;;;;;21.46;55.06;100143.41;5006058;28;20140;-39
2022/10/01 08:01:16;;;;;;;16.52;6.50;;;;;;;21.45;55.25;100147.09;5006270;28;20049;-38
2022/10/01 08:03:42;;;;;;;15.57;5.57;;;;;;;21.43;54.69;100149.94;5006379;28;20391;-39
2022/10/01 08:06:10;;;;;;;20.67;6.35;;;;;;;21.45;54.95;100156.00;5009436;28;21446;-38
2022/10/01 08:08:35;;;;;;;22.42;6.63;;;;;;;21.47;55.10;100155.00;5009813;28;20037;-34
2022/10/01 08:11:02;;;;;;;20.15;6.53;;;;;;;21.47;55.15;100158.56;5009989;28;20045;-35
2022/10/01 08:13:27;;;;;;;37.05;9.68;;;;;;;21.47;54.61;100160.41;5010633;28;20277;-38
2022/10/01 08:15:53;;;;;;;29.00;7.50;;;;;;;21.51;54.11;100173.41;5011351;28;20474;-33
2022/10/01 08:18:22;;;;;;;28.70;7.50;;;;;;;21.49;54.70;100177.25;5010214;28;20404;-33
2022/10/01 08:20:48;;;;;;;46.92;10.88;;;;;;;21.49;55.22;100182.66;5010408;28;20039;-38
2022/10/01 08:23:15;;;;;;;77.47;14.35;;;;;;;21.48;55.08;100179.09;5010777;28;20029;-38
2022/10/01 08:25:43;;;;;;;37.47;8.45;;;;;;;21.47;54.44;100193.59;5009240;28;20076;-38
2022/10/01 08:28:10;;;;;;;39.53;9.05;;;;;;;21.52;55.52;100185.88;5001832;28;20211;-38
2022/10/01 08:30:40;;;;;;;54.28;11.77;;;;;;;21.57;55.85;100188.13;5000619;28;20086;-38
2022/10/01 08:33:08;;;;;;;34.85;8.10;;;;;;;21.58;55.39;100204.13;5004476;28;20461;-37
2022/10/01 08:35:33;;;;;;;35.30;8.18;;;;;;;21.60;55.26;100201.28;5004549;28;20040;-39
2022/10/01 08:38:03;;;;;;;36.85;8.18;;;;;;;21.62;55.12;100209.22;5003407;28;21414;-36
2022/10/01 08:40:33;;;;;;;32.38;8.20;;;;;;;21.63;55.37;100213.59;4990876;28;20605;-39
2022/10/01 08:46:16;;;;;;;26.60;6.88;;;;;;;21.65;54.90;100216.97;4979272;23;20349;-38
2022/10/01 08:49:19;;;;;;;25.40;7.20;;;;;;;21.69;55.08;100219.22;4979765;28;20047;-37
2022/10/01 08:51:53;;;;;;;25.52;7.05;;;;;;;21.70;55.16;100215.53;4981554;28;20389;-36
2022/10/01 08:54:29;;;;;;;23.02;6.47;;;;;;;21.72;55.01;100229.66;4980916;28;20034;-36
2022/10/01 08:56:58;;;;;;;27.23;6.65;;;;;;;21.73;54.72;100225.97;4983218;28;20026;-36
2022/10/01 08:59:46;;;;;;;25.45;6.38;;;;;;;21.78;54.75;100230.91;4981911;28;20033;-39
2022/10/01 09:02:23;;;;;;;25.10;6.80;;;;;;;21.83;54.54;100235.81;4981651;28;21414;-36
2022/10/01 09:05:35;;;;;;;21.02;6.30;;;;;;;21.84;54.93;100254.53;4982494;28;20033;-37
2022/10/01 09:08:45;;;;;;;21.80;5.70;;;;;;;21.84;54.57;100257.22;4979922;28;20371;-39
2022/10/01 09:11:45;;;;;;;16.60;5.03;;;;;;;21.88;54.47;100261.28;4971427;28;20069;-40
2022/10/01 09:14:37;;;;;;;15.90;4.80;;;;;;;21.90;54.22;100267.34;4971583;28;20069;-36
2022/10/01 09:17:08;;;;;;;17.17;4.90;;;;;;;21.91;54.29;100279.84;4985041;28;20135;-36
2022/10/01 09:20:03;;;;;;;15.13;4.50;;;;;;;21.90;54.36;100271.91;4983799;28;20645;-37
2022/10/01 09:22:38;;;;;;;17.42;5.28;;;;;;;21.93;54.52;100275.16;4984612;28;20029;-37
2022/10/01 09:25:20;;;;;;;15.90;4.75;;;;;;;21.97;54.11;100291.00;4984954;28;20518;-36
2022/10/01 09:27:46;;;;;;;16.88;4.78;;;;;;;21.97;54.31;100291.88;4983419;28;20083;-33
2022/10/01 09:30:23;;;;;;;12.07;4.03;;;;;;;21.99;54.06;100283.59;4984882;28;20038;-36
2022/10/01 09:32:58;;;;;;;15.63;4.50;;;;;;;22.02;53.92;100304.84;4984649;28;20382;-35
2022/10/01 09:35:44;;;;;;;13.35;4.22;;;;;;;22.00;53.99;100296.94;4982753;28;20088;-40
2022/10/01 09:38:33;;;;;;;11.70;4.10;;;;;;;22.00;54.00;100307.72;4985001;28;20758;-39
2022/10/01 09:40:58;;;;;;;10.60;3.60;;;;;;;22.03;53.93;100301.16;4984873;28;20470;-40
2022/10/01 09:43:37;;;;;;;13.52;3.85;;;;;;;22.06;53.97;100314.34;4985367;28;20041;-39
2022/10/01 09:46:13;;;;;;;11.55;3.83;;;;;;;22.04;53.91;100311.78;4984061;28;20101;-38
2022/10/01 09:48:56;;;;;;;11.27;3.70;;;;;;;22.08;53.73;100325.81;4984007;28;20038;-40
2022/10/01 09:51:30;;;;;;;16.15;4.10;;;;;;;22.04;53.84;100316.34;4984370;28;20465;-37
2022/10/01 09:53:57;;;;;;;14.25;3.72;;;;;;;22.07;53.76;100327.66;4983144;28;20517;-38
2022/10/01 09:56:41;;;;;;;14.15;3.95;;;;;;;22.11;53.99;100330.91;4983447;28;20121;-38
2022/10/01 09:59:15;;;;;;;13.95;3.83;;;;;;;22.12;53.76;100337.97;4984119;28;20049;-36
2022/10/01 10:02:06;;;;;;;12.07;3.30;;;;;;;22.15;53.76;100345.75;4983659;28;20063;-35
2022/10/01 10:04:31;;;;;;;12.07;3.55;;;;;;;22.17;53.90;100349.13;4984623;28;20489;-37
2022/10/01 10:07:04;;;;;;;10.00;3.15;;;;;;;22.17;53.82;100346.41;4984277;28;20033;-35
2022/10/01 10:09:32;;;;;;;11.32;3.28;;;;;;;22.17;54.17;100353.69;4982873;28;20033;-38
2022/10/01 10:11:58;;;;;;;10.05;3.00;;;;;;;22.17;53.55;100357.22;4984565;28;20152;-39
2022/10/01 10:14:30;;;;;;;10.68;3.28;;;;;;;22.17;53.82;100367.16;4982355;28;20072;-38
2022/10/01 10:16:56;;;;;;;10.18;2.85;;;;;;;22.19;53.51;100368.69;4984656;28;20600;-38
2022/10/01 10:19:23;;;;;;;8.90;3.10;;;;;;;22.21;53.51;100371.22;4983073;28;20030;-38
2022/10/01 10:21:55;;;;;;;8.05;3.15;;;;;;;22.23;53.67;100378.16;4983109;28;20537;-38
2022/10/01 10:24:41;;;;;;;7.10;2.50;;;;;;;22.25;53.62;100368.06;4980980;28;20406;-37
2022/10/01 10:27:19;;;;;;;8.93;2.70;;;;;;;22.29;53.75;100381.25;4981838;28;20034;-36
2022/10/01 10:29:44;;;;;;;7.10;2.30;;;;;;;22.30;53.72;100391.88;4983033;28;20072;-36
2022/10/01 10:32:21;;;;;;;9.95;2.70;;;;;;;22.32;53.38;100384.47;4982855;28;20029;-36
2022/10/01 10:34:46;;;;;;;7.78;2.65;;;;;;;22.33;53.57;100388.00;4983485;28;21866;-36
2022/10/01 10:37:21;;;;;;;11.85;2.83;;;;;;;22.32;53.48;100400.66;4983438;28;20034;-44
2022/10/01 10:39:50;;;;;;;44.58;4.97;;;;;;;22.34;53.39;100403.19;4980474;28;20095;-36
2022/10/01 10:42:17;;;;;;;7.75;2.70;;;;;;;22.35;53.46;100415.69;4983106;28;20026;-35
2022/10/01 10:44:47;;;;;;;8.70;2.40;;;;;;;22.36;53.24;100422.78;4983985;28;20520;-41
2022/10/01 10:47:14;;;;;;;178.15;9.63;;;;;;;22.33;53.60;100421.25;4983258;28;20057;-36
2022/10/01 10:49:43;;;;;;;11.20;2.53;;;;;;;22.33;53.62;100423.94;4983517;28;20255;-35
2022/10/01 10:52:28;;;;;;;9.32;2.97;;;;;;;22.36;53.48;100426.34;4983119;28;20099;-35
2022/10/01 10:54:55;;;;;;;11.13;2.63;;;;;;;22.37;53.39;100429.91;4982709;28;20037;-36
2022/10/01 10:57:28;;;;;;;9.18;2.80;;;;;;;22.39;53.33;100438.66;4984084;28;20046;-40
2022/10/01 11:00:23;;;;;;;9.48;2.70;;;;;;;22.42;53.31;100443.78;4970775;28;20028;-40
2022/10/01 11:02:48;;;;;;;8.20;2.45;;;;;;;22.44;53.29;100449.00;4970229;28;20046;-35
2022/10/01 11:05:20;;;;;;;12.70;2.73;;;;;;;22.41;53.21;100456.41;4981486;28;20366;-35
2022/10/01 11:07:47;;;;;;;7.18;2.40;;;;;;;22.42;53.43;100463.50;4977432;28;20302;-39
2022/10/01 11:10:22;;;;;;;9.82;2.78;;;;;;;22.44;53.14;100462.50;4978700;28;20042;-39
2022/10/01 11:12:56;;;;;;;8.27;2.30;;;;;;;22.45;53.08;100466.91;4981997;28;20029;-37
2022/10/01 11:15:46;;;;;;;8.85;2.42;;;;;;;22.38;52.99;100480.16;4983475;28;20041;-41
2022/10/01 11:18:49;;;;;;;8.07;2.50;;;;;;;22.33;53.32;100483.28;4983832;28;20034;-40
2022/10/01 11:21:35;;;;;;;8.85;2.50;;;;;;;22.29;53.25;100484.59;4981709;28;20056;-37
2022/10/01 11:24:22;;;;;;;8.10;2.45;;;;;;;22.26;53.41;100487.59;4984405;28;20038;-37
2022/10/01 11:26:59;;;;;;;8.18;2.05;;;;;;;22.22;53.49;100500.53;4982244;28;20757;-37
2022/10/01 11:29:36;;;;;;;7.10;2.28;;;;;;;22.22;53.46;100505.09;4981447;28;20038;-37
2022/10/01 11:32:21;;;;;;;10.90;2.63;;;;;;;22.19;53.42;100506.25;4981548;28;20481;-37
2022/10/01 11:35:11;;;;;;;8.52;2.40;;;;;;;22.18;53.24;100501.00;4983766;28;20025;-37
2022/10/01 11:38:10;;;;;;;10.85;2.50;;;;;;;22.19;53.89;100517.03;4982035;28;20046;-41
2022/10/01 11:40:39;;;;;;;5.93;2.10;;;;;;;22.20;53.63;100520.56;4983598;28;20072;-41
2022/10/01 11:46:50;;;;;;;7.32;2.35;;;;;;;22.19;53.08;100525.13;5076959;23;20952;-34
2022/10/01 11:49:21;;;;;;;9.15;2.10;;;;;;;22.19;52.74;100527.81;4976103;28;20773;-35